createdAt,value
2022-10-29T00:02:09.554Z,101059.98
2022-10-29T00:07:12.345Z,101058.43
2022-10-29T00:12:15.258Z,101053.30
2022-10-29T00:17:18.004Z,101047.98
2022-10-29T00:22:20.970Z,101038.16
2022-10-29T00:27:23.972Z,101033.12
2022-10-29T00:32:26.837Z,101030.12
2022-10-29T00:37:29.694Z,101029.61
2022-10-29T00:42:32.443Z,101025.98
2022-10-29T00:47:36.644Z,101027.86
2022-10-29T00:52:44.170Z,101022.64
2022-10-29T00:57:53.108Z,101016.35
2022-10-29T01:02:56.378Z,101014.91
2022-10-29T01:07:59.500Z,101013.05
2022-10-29T01:14:04.759Z,101009.37
2022-10-29T01:20:05.425Z,100999.77
2022-10-29T01:26:08.276Z,100996.33
2022-10-29T01:31:34.996Z,101003.56
2022-10-29T01:36:55.802Z,101006.59
2022-10-29T01:42:37.978Z,101011.16
2022-10-29T01:47:45.786Z,101008.70
2022-10-29T01:52:48.993Z,101004.25
2022-10-29T01:57:51.747Z,100998.77
2022-10-29T02:03:16.028Z,100996.04
2022-10-29T02:08:31.656Z,100996.45
2022-10-29T02:13:46.110Z,100995.63
2022-10-29T02:18:48.894Z,100991.92
2022-10-29T02:23:51.720Z,100989.78
2022-10-29T02:28:55.704Z,100981.66
2022-10-29T02:33:59.687Z,100976.36
2022-10-29T02:39:02.425Z,100967.31
2022-10-29T02:44:25.146Z,100956.73
2022-10-29T02:49:28.184Z,100952.17
2022-10-29T02:54:31.316Z,100946.10
2022-10-29T02:59:34.379Z,100940.69
2022-10-29T03:04:39.724Z,100936.90
2022-10-29T03:09:42.479Z,100938.38
2022-10-29T03:14:45.208Z,100933.73
2022-10-29T03:19:48.351Z,100926.02
2022-10-29T03:24:51.081Z,100922.10
2022-10-29T03:29:53.975Z,100918.33
2022-10-29T03:34:59.820Z,100908.11
2022-10-29T03:40:05.068Z,100901.84
2022-10-29T03:45:09.333Z,100899.48
2022-10-29T03:50:12.797Z,100895.70
2022-10-29T03:55:15.563Z,100898.19
2022-10-29T04:00:18.601Z,100903.20
2022-10-29T04:05:23.027Z,100914.27
2022-10-29T04:10:28.177Z,100920.90
2022-10-29T04:15:32.479Z,100926.84
2022-10-29T04:21:31.277Z,100920.58
2022-10-29T04:31:24.772Z,100908.35
2022-10-29T04:36:27.867Z,100896.77
2022-10-29T04:41:30.630Z,100898.73
2022-10-29T04:46:33.430Z,100897.36
2022-10-29T04:51:37.822Z,100889.30
2022-10-29T04:56:40.558Z,100886.04
2022-10-29T05:01:43.325Z,100897.70
2022-10-29T05:06:46.055Z,100897.98
2022-10-29T05:11:48.957Z,100896.60
2022-10-29T05:16:51.708Z,100899.15
2022-10-29T05:21:54.560Z,100904.34
2022-10-29T05:26:57.330Z,100916.86
2022-10-29T05:32:00.184Z,100932.17
2022-10-29T05:37:03.283Z,100923.89
2022-10-29T05:42:06.325Z,100939.12
2022-10-29T05:47:09.170Z,100936.32
2022-10-29T05:52:12.420Z,100929.08
2022-10-29T05:57:15.137Z,100929.20
2022-10-29T06:02:18.069Z,100925.86
2022-10-29T06:07:21.053Z,100929.75
2022-10-29T06:12:23.871Z,100927.14
2022-10-29T06:17:27.262Z,100917.84
2022-10-29T06:22:30.094Z,100925.75
2022-10-29T06:27:32.921Z,100927.84
2022-10-29T06:32:35.677Z,100920.51
2022-10-29T06:37:38.981Z,100919.84
2022-10-29T06:42:43.096Z,100932.52
2022-10-29T06:47:45.957Z,100931.17
2022-10-29T06:53:14.893Z,100929.84
2022-10-29T06:58:20.360Z,100936.14
2022-10-29T07:03:23.326Z,100938.83
2022-10-29T07:08:26.513Z,100950.94
2022-10-29T07:13:29.358Z,100953.47
2022-10-29T07:18:35.301Z,100956.67
2022-10-29T07:23:39.484Z,100949.00
2022-10-29T07:28:42.369Z,100942.16
2022-10-29T07:33:45.223Z,100938.30
2022-10-29T07:38:48.020Z,100934.15
2022-10-29T07:43:50.892Z,100930.17
2022-10-29T07:48:55.225Z,100929.81
2022-10-29T07:53:58.038Z,100931.06
2022-10-29T07:59:00.942Z,100934.92
2022-10-29T08:04:06.108Z,100931.42
2022-10-29T08:09:10.795Z,100934.33
2022-10-29T08:14:16.690Z,100930.02
2022-10-29T08:19:20.791Z,100930.33
2022-10-29T08:24:23.646Z,100937.46
2022-10-29T08:29:27.124Z,100931.83
2022-10-29T08:34:30.384Z,100911.05
2022-10-29T08:39:33.281Z,100925.55
2022-10-29T08:45:00.686Z,100937.44
2022-10-29T08:50:30.620Z,100932.45
2022-10-29T08:55:37.275Z,100932.81
2022-10-29T09:00:42.116Z,100933.45
2022-10-29T09:06:10.986Z,100933.98
2022-10-29T09:11:55.623Z,100931.83
2022-10-29T09:17:14.555Z,100947.05
2022-10-29T09:22:37.244Z,100955.44
2022-10-29T09:27:52.294Z,100959.03
2022-10-29T09:33:07.455Z,100953.80
2022-10-29T09:38:22.413Z,100948.77
2022-10-29T09:43:51.414Z,100934.56
2022-10-29T09:49:12.437Z,100930.78
2022-10-29T09:54:15.689Z,100924.77
2022-10-29T09:59:40.816Z,100938.42
2022-10-29T10:04:48.115Z,100949.27
2022-10-29T10:09:59.504Z,100963.00
2022-10-29T10:15:17.097Z,100973.25
2022-10-29T10:20:41.218Z,100964.64
2022-10-29T10:25:44.382Z,100969.67
2022-10-29T10:31:12.297Z,100948.05
2022-10-29T10:36:15.803Z,100951.48
2022-10-29T10:41:34.274Z,100957.40
2022-10-29T10:46:42.656Z,100965.96
2022-10-29T10:51:49.479Z,100984.09
2022-10-29T10:57:12.560Z,100985.41
2022-10-29T11:02:36.345Z,100992.89
2022-10-29T11:07:39.922Z,100986.27
2022-10-29T11:12:52.505Z,100985.58
2022-10-29T11:18:18.017Z,100972.35
2022-10-29T11:23:31.788Z,100964.70
2022-10-29T11:28:39.639Z,100963.65
2022-10-29T11:34:01.169Z,100960.51
2022-10-29T11:39:30.554Z,100971.36
2022-10-29T11:44:37.674Z,100971.64
2022-10-29T11:49:55.969Z,100982.20
2022-10-29T11:55:13.570Z,100982.55
2022-10-29T12:00:21.925Z,100991.13
2022-10-29T12:05:45.981Z,100990.92
2022-10-29T12:11:25.261Z,100975.27
2022-10-29T12:16:44.959Z,100965.95
2022-10-29T12:22:23.907Z,100958.30
2022-10-29T12:27:45.869Z,100969.63
2022-10-29T12:33:37.133Z,100964.09
2022-10-29T12:38:51.315Z,100964.71
2022-10-29T12:44:05.454Z,100963.06
2022-10-29T12:49:29.099Z,100963.08
2022-10-29T12:54:37.500Z,100968.77
2022-10-29T12:59:41.662Z,100971.05
2022-10-29T13:05:07.951Z,100971.31
2022-10-29T13:10:26.468Z,100964.56
2022-10-29T13:15:43.846Z,100966.34
2022-10-29T13:20:49.788Z,100971.46
2022-10-29T13:25:54.896Z,100967.56
2022-10-29T13:31:04.069Z,100969.10
2022-10-29T13:36:19.141Z,100968.56
2022-10-29T13:41:44.450Z,100975.17
2022-10-29T13:47:22.731Z,100977.05
2022-10-29T13:52:35.963Z,100978.38
2022-10-29T13:57:54.865Z,100978.68
2022-10-29T14:03:04.413Z,100976.84
2022-10-29T14:08:41.305Z,100974.85
2022-10-29T14:13:49.310Z,100980.00
2022-10-29T14:19:01.922Z,100985.94
2022-10-29T14:24:09.763Z,100982.17
2022-10-29T14:29:24.128Z,100977.27
2022-10-29T14:34:27.607Z,100976.31
2022-10-29T14:39:59.032Z,100979.00
2022-10-29T14:45:16.567Z,100979.74
2022-10-29T14:50:23.018Z,100980.55
2022-10-29T14:55:33.574Z,100982.89
2022-10-29T15:00:37.328Z,100995.92
2022-10-29T15:05:40.667Z,100995.83
2022-10-29T15:10:55.679Z,100988.33
2022-10-29T15:16:04.987Z,100985.66
2022-10-29T15:21:08.226Z,100980.42
2022-10-29T15:26:30.103Z,100982.35
2022-10-29T15:31:46.612Z,100997.73
2022-10-29T15:36:56.383Z,101004.56
2022-10-29T15:41:59.957Z,101005.30
2022-10-29T15:47:21.295Z,101008.20
2022-10-29T15:52:30.613Z,101003.27
2022-10-29T15:57:33.372Z,101001.83
2022-10-29T16:02:36.355Z,100993.88
2022-10-29T16:07:40.840Z,100991.56
2022-10-29T16:12:43.733Z,100995.48
2022-10-29T16:17:47.769Z,101003.75
2022-10-29T16:22:50.605Z,101000.13
2022-10-29T16:27:54.413Z,101004.32
2022-10-29T16:32:57.830Z,101000.54
2022-10-29T16:38:00.874Z,101002.91
2022-10-29T16:43:03.706Z,101001.33
2022-10-29T16:48:06.750Z,100995.86
2022-10-29T16:53:12.501Z,100998.16
2022-10-29T16:58:17.008Z,101003.02
2022-10-29T17:03:19.839Z,101000.73
2022-10-29T17:08:22.706Z,100995.33
2022-10-29T17:13:25.455Z,100988.51
2022-10-29T17:18:28.757Z,100992.38
2022-10-29T17:23:32.502Z,101005.34
2022-10-29T17:28:36.777Z,101013.09
2022-10-29T17:33:39.553Z,101015.89
2022-10-29T17:38:42.331Z,101015.27
2022-10-29T17:43:45.205Z,101009.05
2022-10-29T17:48:48.003Z,101008.23
2022-10-29T17:53:50.831Z,101011.42
2022-10-29T17:58:55.168Z,101006.67
2022-10-29T18:04:05.193Z,100998.63
2022-10-29T18:09:09.600Z,100997.60
2022-10-29T18:14:12.369Z,101006.82
2022-10-29T18:19:15.239Z,101019.98
2022-10-29T18:24:19.581Z,101020.41
2022-10-29T18:29:22.532Z,101019.27
2022-10-29T18:34:25.480Z,101026.97
2022-10-29T18:39:28.280Z,101025.23
2022-10-29T18:44:31.183Z,101042.51
2022-10-29T18:49:34.020Z,101035.22
2022-10-29T18:54:36.920Z,101037.41
2022-10-29T18:59:42.212Z,101044.20
2022-10-29T19:04:45.482Z,101040.58
2022-10-29T19:09:48.429Z,101042.45
2022-10-29T19:14:51.285Z,101055.20
2022-10-29T19:19:54.099Z,101053.90
2022-10-29T19:24:56.952Z,101057.27
2022-10-29T19:29:59.775Z,101066.48
2022-10-29T19:35:02.605Z,101071.71
2022-10-29T19:40:07.586Z,101068.98
2022-10-29T19:45:10.607Z,101064.19
2022-10-29T19:50:13.496Z,101065.14
2022-10-29T19:55:17.654Z,101066.13
2022-10-29T20:00:20.909Z,101067.90
2022-10-29T20:05:24.910Z,101068.30
2022-10-29T20:10:27.982Z,101061.47
2022-10-29T20:15:33.477Z,101059.49
2022-10-29T20:20:36.346Z,101067.15
2022-10-29T20:25:39.172Z,101062.73
2022-10-29T20:30:44.407Z,101053.04
2022-10-29T20:35:47.124Z,101057.58
2022-10-29T20:40:52.579Z,101062.30
2022-10-29T20:46:01.038Z,101051.06
2022-10-29T20:51:04.253Z,101056.16
2022-10-29T20:56:10.341Z,101063.83
2022-10-29T21:01:17.936Z,101057.25
2022-10-29T21:06:20.870Z,101054.84
2022-10-29T21:11:24.028Z,101055.71
2022-10-29T21:16:28.102Z,101063.50
2022-10-29T21:21:30.869Z,101055.70
2022-10-29T21:26:33.631Z,101043.73
2022-10-29T21:31:36.581Z,101038.11
2022-10-29T21:36:39.518Z,101043.32
2022-10-29T21:41:42.268Z,101036.20
2022-10-29T21:46:45.114Z,101033.27
2022-10-29T21:51:50.013Z,101041.07
2022-10-29T21:56:52.983Z,101048.39
2022-10-29T22:01:55.933Z,101044.59
2022-10-29T22:07:00.096Z,101049.39
2022-10-29T22:12:03.042Z,101044.98
2022-10-29T22:17:06.331Z,101044.36
2022-10-29T22:22:09.169Z,101042.08
2022-10-29T22:27:12.016Z,101041.23
2022-10-29T22:32:14.946Z,101033.50
2022-10-29T22:37:17.783Z,101022.55
2022-10-29T22:42:22.109Z,101002.14
2022-10-29T22:47:24.852Z,100994.34
2022-10-29T22:52:27.721Z,101001.21
2022-10-29T22:57:32.998Z,101003.83
2022-10-29T23:02:35.796Z,101007.06
2022-10-29T23:07:38.639Z,101011.55
2022-10-29T23:12:41.380Z,101015.93
2022-10-29T23:17:44.309Z,101017.23
2022-10-29T23:22:47.668Z,101023.06
2022-10-29T23:27:56.335Z,101033.98
2022-10-29T23:33:00.395Z,101035.60
2022-10-29T23:38:03.462Z,101032.54
2022-10-29T23:43:06.285Z,101019.39
2022-10-29T23:48:09.447Z,101016.66
2022-10-29T23:53:13.001Z,101017.54
2022-10-29T23:58:15.980Z,101022.73
